Oiapoque, Brazil
Current Conditions -  °F | °C
As of 12:30 PM on Friday 24 Oct 2014 (Local Time) from SOCA Reporting Station
Scattered Clouds Scattered Clouds  
Wind Chill: 90°   Ceiling: Unl
Heat Index: 96°   Visibility: 6mi
Dew Point: 72°   Wind: 7mph
Humidity: 55%   Direction: 90°E
Pressure: 29.85"   Gusts: NA
Location:  3.84°N, 51.83°W
Report Text: SOCA 241530Z AUTO 09006KT 060V130 9999 SCT040/// SCT048///32/22 Q1011
Loading
Personal Weather Stations






























Interactive Weather Map
Tropical Storm Tracking
New forecast layout! Learn more

10-Day Weather Forecast

Advertisements
Track Severe Weather on mobile